Time;durP1;ratioP1;P1;durP2;ratioP2;P2;SDS_P1;SDS_P2;PMS_P1;PMS_P2;Temp;Humidity;BMP_temperature;BMP_pressure;BME280_temperature;BME280_humidity;BME280_pressure;Samples;Min_cycle;Max_cycle;Signal;HPM_P1;HPM_P2
2022/07/12 00:00:44;;;;;;;;;;;;;;;;;;5084085;28;896;-70
2022/07/12 00:03:10;;;;;;;;;;;;;;;;;;5083051;28;1322;-68
2022/07/12 00:05:35;;;;;;;;;;;;;;;;;;5073353;28;1477;-69
2022/07/12 00:08:00;;;;;;;;;;;;;;;;;;5063646;28;1196;-68
2022/07/12 00:10:25;;;;;;;;;;;;;;;;;;5064137;28;1528;-68
2022/07/12 00:12:51;;;;;;;;;;;;;;;;;;5072996;28;1874;-68
2022/07/12 00:15:16;;;;;;;;;;;;;;;;;;5083878;28;810;-69
2022/07/12 00:17:41;;;;;;;;;;;;;;;;;;5083393;28;1485;-68
2022/07/12 00:20:07;;;;;;;;;;;;;;;;;;5082569;28;1449;-68
2022/07/12 00:22:32;;;;;;;;;;;;;;;;;;5084099;28;810;-68
2022/07/12 00:24:58;;;;;;;;;;;;;;;;;;5083535;28;794;-68
2022/07/12 00:27:23;;;;;;;;;;;;;;;;;;5063764;28;1469;-69
2022/07/12 00:29:48;;;;;;;;;;;;;;;;;;5071011;28;1057;-68
2022/07/12 00:32:13;;;;;;;;;;;;;;;;;;5082584;28;929;-68
2022/07/12 00:34:39;;;;;;;;;;;;;;;;;;5081538;28;1897;-68
2022/07/12 00:37:04;;;;;;;;;;;;;;;;;;5083897;28;1240;-68
2022/07/12 00:39:29;;;;;;;;;;;;;;;;;;5070226;28;1465;-70
2022/07/12 00:41:54;;;;;;;;;;;;;;;;;;5076736;28;1518;-70
2022/07/12 00:44:20;;;;;;;;;;;;;;;;;;5083589;28;786;-71
2022/07/12 00:46:45;;;;;;;;;;;;;;;;;;5073542;28;1309;-70
2022/07/12 00:49:15;;;;;;;;;;;;;;;;;;5062993;28;956;-71
2022/07/12 00:51:40;;;;;;;;;;;;;;;;;;5063508;28;874;-70
2022/07/12 00:54:06;;;;;;;;;;;;;;;;;;5061656;28;1973;-70
2022/07/12 00:56:31;;;;;;;;;;;;;;;;;;5064055;28;1474;-70
2022/07/12 00:58:57;;;;;;;;;;;;;;;;;;5063541;28;809;-70
2022/07/12 01:01:22;;;;;;;;;;;;;;;;;;5080789;28;1544;-70
2022/07/12 01:03:49;;;;;;;;;;;;;;;;;;5074908;28;1294;-70
2022/07/12 01:06:14;;;;;;;;;;;;;;;;;;5063741;28;1525;-69
2022/07/12 01:08:40;;;;;;;;;;;;;;;;;;5063492;28;819;-69
2022/07/12 01:11:05;;;;;;;;;;;;;;;;;;5063890;28;1402;-69
2022/07/12 01:13:31;;;;;;;;;;;;;;;;;;5061381;28;1918;-69
2022/07/12 01:15:56;;;;;;;;;;;;;;;;;;5062842;28;1009;-69
2022/07/12 01:18:22;;;;;;;;;;;;;;;;;;5062712;28;1188;-69
2022/07/12 01:20:47;;;;;;;;;;;;;;;;;;5070630;28;838;-69
2022/07/12 01:23:13;;;;;;;;;;;;;;;;;;5081973;28;1026;-68
2022/07/12 01:25:39;;;;;;;;;;;;;;;;;;5073572;28;1552;-68
2022/07/12 01:28:04;;;;;;;;;;;;;;;;;;5081957;28;1386;-68
2022/07/12 01:30:29;;;;;;;;;;;;;;;;;;5082211;28;1486;-68
2022/07/12 01:32:55;;;;;;;;;;;;;;;;;;5083605;28;1905;-69
2022/07/12 01:35:21;;;;;;;;;;;;;;;;;;5082594;28;1587;-70
2022/07/12 01:37:46;;;;;;;;;;;;;;;;;;5075130;28;1290;-70
2022/07/12 01:40:13;;;;;;;;;;;;;;;;;;5063422;28;1470;-70
2022/07/12 01:42:38;;;;;;;;;;;;;;;;;;5082530;28;890;-70
2022/07/12 01:45:05;;;;;;;;;;;;;;;;;;5080958;28;1657;-69
2022/07/12 01:47:30;;;;;;;;;;;;;;;;;;5082484;28;1350;-70
2022/07/12 01:49:56;;;;;;;;;;;;;;;;;;5082462;28;1489;-70
2022/07/12 01:52:21;;;;;;;;;;;;;;;;;;5081199;28;1889;-70
2022/07/12 01:54:47;;;;;;;;;;;;;;;;;;5073910;28;909;-70
2022/07/12 01:57:12;;;;;;;;;;;;;;;;;;5064553;28;1576;-70
2022/07/12 01:59:38;;;;;;;;;;;;;;;;;;5062252;28;901;-69
2022/07/12 02:02:03;;;;;;;;;;;;;;;;;;5062304;28;795;-68
2022/07/12 02:04:29;;;;;;;;;;;;;;;;;;5063032;28;1449;-70
2022/07/12 02:06:54;;;;;;;;;;;;;;;;;;5062289;28;1200;-69
2022/07/12 02:09:19;;;;;;;;;;;;;;;;;;5068495;28;1363;-69
2022/07/12 02:11:46;;;;;;;;;;;;;;;;;;5066872;28;1368;-69
2022/07/12 02:14:12;;;;;;;;;;;;;;;;;;5061185;28;1975;-70
2022/07/12 02:16:38;;;;;;;;;;;;;;;;;;5062369;28;1204;-69
2022/07/12 02:19:03;;;;;;;;;;;;;;;;;;5062046;28;1012;-70
2022/07/12 02:21:28;;;;;;;;;;;;;;;;;;5062542;28;893;-69
2022/07/12 02:23:53;;;;;;;;;;;;;;;;;;5066829;28;1470;-69
2022/07/12 02:26:19;;;;;;;;;;;;;;;;;;5071563;28;1453;-69
2022/07/12 02:28:44;;;;;;;;;;;;;;;;;;5068766;28;1366;-69
2022/07/12 02:31:09;;;;;;;;;;;;;;;;;;5082228;28;827;-69
2022/07/12 02:33:35;;;;;;;;;;;;;;;;;;5082133;28;1952;-69
2022/07/12 02:36:00;;;;;;;;;;;;;;;;;;5081190;28;1575;-69
2022/07/12 02:38:26;;;;;;;;;;;;;;;;;;5082585;28;1528;-69
2022/07/12 02:40:54;;;;;;;;;;;;;;;;;;5075128;28;1516;-69
2022/07/12 02:43:26;;;;;;;;;;;;;;;;;;5062101;28;917;-69
2022/07/12 02:45:52;;;;;;;;;;;;;;;;;;5070883;28;886;-69
2022/07/12 02:48:17;;;;;;;;;;;;;;;;;;5081506;28;1168;-69
2022/07/12 02:50:43;;;;;;;;;;;;;;;;;;5080868;28;941;-69
2022/07/12 02:53:10;;;;;;;;;;;;;;;;;;5067938;28;1898;-69
2022/07/12 02:55:35;;;;;;;;;;;;;;;;;;5063855;28;1481;-69
2022/07/12 02:58:07;;;;;;;;;;;;;;;;;;5081540;28;1282;-69
2022/07/12 03:00:32;;;;;;;;;;;;;;;;;;5081438;28;862;-69
2022/07/12 03:02:58;;;;;;;;;;;;;;;;;;5073994;28;1318;-70
2022/07/12 03:05:24;;;;;;;;;;;;;;;;;;5081241;28;1032;-69
2022/07/12 03:07:49;;;;;;;;;;;;;;;;;;5081993;28;1525;-69
2022/07/12 03:10:14;;;;;;;;;;;;;;;;;;5080061;28;1488;-69
2022/07/12 03:12:39;;;;;;;;;;;;;;;;;;5061483;28;1902;-69
2022/07/12 03:15:05;;;;;;;;;;;;;;;;;;5061605;28;803;-70
2022/07/12 03:17:31;;;;;;;;;;;;;;;;;;5060242;28;1175;-69
2022/07/12 03:19:57;;;;;;;;;;;;;;;;;;5071671;28;802;-69
2022/07/12 03:22:22;;;;;;;;;;;;;;;;;;5081416;28;1465;-69
2022/07/12 03:24:47;;;;;;;;;;;;;;;;;;5079212;28;1547;-69
2022/07/12 03:27:13;;;;;;;;;;;;;;;;;;5074494;28;1475;-69
2022/07/12 03:29:39;;;;;;;;;;;;;;;;;;5081079;28;1545;-68
2022/07/12 03:32:05;;;;;;;;;;;;;;;;;;5081542;28;826;-69
2022/07/12 03:34:31;;;;;;;;;;;;;;;;;;5072280;28;1905;-69
2022/07/12 03:37:05;;;;;;;;;;;;;;;;;;5070628;28;1243;-69
2022/07/12 03:39:30;;;;;;;;;;;;;;;;;;5062277;28;1359;-70
2022/07/12 03:41:55;;;;;;;;;;;;;;;;;;5076722;28;1486;-70
2022/07/12 03:44:21;;;;;;;;;;;;;;;;;;5079782;28;1437;-70
2022/07/12 03:46:47;;;;;;;;;;;;;;;;;;5081764;28;1317;-68
2022/07/12 03:49:12;;;;;;;;;;;;;;;;;;5081081;28;849;-69
2022/07/12 03:51:39;;;;;;;;;;;;;;;;;;5080753;28;1183;-69
2022/07/12 03:54:07;;;;;;;;;;;;;;;;;;5068837;28;1914;-69
2022/07/12 03:59:16;;;;;;;;;;;;;;;;;;5060987;28;617;-69
2022/07/12 04:01:43;;;;;;;;;;;;;;;;;;5063263;28;1482;-69
2022/07/12 04:04:08;;;;;;;;;;;;;;;;;;5065432;28;885;-69
2022/07/12 04:06:33;;;;;;;;;;;;;;;;;;5064528;28;1203;-69
2022/07/12 04:08:58;;;;;;;;;;;;;;;;;;5065204;28;830;-69
2022/07/12 04:11:23;;;;;;;;;;;;;;;;;;5065624;28;1347;-69
2022/07/12 04:13:49;;;;;;;;;;;;;;;;;;5067627;28;1886;-70
2022/07/12 04:16:14;;;;;;;;;;;;;;;;;;5084375;28;1133;-69
2022/07/12 04:18:39;;;;;;;;;;;;;;;;;;5084609;28;1563;-69
2022/07/12 04:21:04;;;;;;;;;;;;;;;;;;5084304;28;1000;-70
2022/07/12 04:23:30;;;;;;;;;;;;;;;;;;5085116;28;1378;-68
2022/07/12 04:25:55;;;;;;;;;;;;;;;;;;5074174;28;1398;-70
2022/07/12 04:28:20;;;;;;;;;;;;;;;;;;5076979;28;1184;-69
2022/07/12 04:30:46;;;;;;;;;;;;;;;;;;5083687;28;933;-69
2022/07/12 04:33:12;;;;;;;;;;;;;;;;;;5084026;28;1967;-70
2022/07/12 04:35:37;;;;;;;;;;;;;;;;;;5081929;28;1414;-70
2022/07/12 04:38:03;;;;;;;;;;;;;;;;;;5070793;28;1426;-69
2022/07/12 04:40:28;;;;;;;;;;;;;;;;;;5081514;28;1308;-70
2022/07/12 04:42:53;;;;;;;;;;;;;;;;;;5084114;28;1193;-69
2022/07/12 04:45:18;;;;;;;;;;;;;;;;;;5072532;28;1044;-70
2022/07/12 04:47:44;;;;;;;;;;;;;;;;;;5084896;28;1195;-71
2022/07/12 04:50:09;;;;;;;;;;;;;;;;;;5084015;28;1493;-70
2022/07/12 04:52:35;;;;;;;;;;;;;;;;;;5084132;28;1905;-70
2022/07/12 04:55:00;;;;;;;;;;;;;;;;;;5084455;28;933;-70
2022/07/12 04:57:26;;;;;;;;;;;;;;;;;;5083755;28;1342;-70
2022/07/12 04:59:51;;;;;;;;;;;;;;;;;;5081072;28;1087;-69
2022/07/12 05:02:16;;;;;;;;;;;;;;;;;;5072139;28;1190;-69
2022/07/12 05:04:41;;;;;;;;;;;;;;;;;;5072155;28;1400;-69
2022/07/12 05:07:07;;;;;;;;;;;;;;;;;;5072941;28;1691;-69
2022/07/12 05:09:32;;;;;;;;;;;;;;;;;;5081472;28;1397;-68
2022/07/12 05:11:57;;;;;;;;;;;;;;;;;;5076443;28;1984;-69
2022/07/12 05:14:23;;;;;;;;;;;;;;;;;;5091376;28;1963;-69
2022/07/12 05:16:48;;;;;;;;;;;;;;;;;;5089905;28;1348;-66
2022/07/12 05:19:14;;;;;;;;;;;;;;;;;;5086935;28;1254;-66
2022/07/12 05:21:41;;;;;;;;;;;;;;;;;;5087797;28;1301;-66
2022/07/12 05:24:07;;;;;;;;;;;;;;;;;;5089636;28;1340;-67
2022/07/12 05:26:32;;;;;;;;;;;;;;;;;;5085733;28;1567;-65
2022/07/12 05:28:57;;;;;;;;;;;;;;;;;;5078846;28;1707;-66
2022/07/12 05:31:23;;;;;;;;;;;;;;;;;;5080558;28;1657;-66
2022/07/12 05:33:49;;;;;;;;;;;;;;;;;;5089158;28;1901;-67
2022/07/12 05:36:14;;;;;;;;;;;;;;;;;;5083294;28;1350;-67
2022/07/12 05:38:39;;;;;;;;;;;;;;;;;;5091712;28;1383;-67
2022/07/12 05:41:04;;;;;;;;;;;;;;;;;;5074791;28;1527;-66
2022/07/12 05:43:30;;;;;;;;;;;;;;;;;;5080937;28;1375;-67
2022/07/12 05:45:55;;;;;;;;;;;;;;;;;;5074234;28;1395;-67
2022/07/12 05:48:20;;;;;;;;;;;;;;;;;;5089902;28;1267;-67
2022/07/12 05:50:45;;;;;;;;;;;;;;;;;;5089506;28;1426;-67
2022/07/12 05:53:23;;;;;;;;;;;;;;;;;;5088914;28;1902;-68
2022/07/12 05:55:49;;;;;;;;;;;;;;;;;;5091151;28;1237;-66
2022/07/12 05:58:14;;;;;;;;;;;;;;;;;;5081130;28;1301;-67
2022/07/12 06:00:39;;;;;;;;;;;;;;;;;;5088545;28;1291;-68
2022/07/12 06:03:04;;;;;;;;;;;;;;;;;;5094685;28;1146;-67
2022/07/12 06:05:29;;;;;;;;;;;;;;;;;;5090030;28;1370;-67
2022/07/12 06:07:55;;;;;;;;;;;;;;;;;;5088610;28;1270;-68
2022/07/12 06:10:20;;;;;;;;;;;;;;;;;;5088487;28;1257;-68
2022/07/12 06:12:45;;;;;;;;;;;;;;;;;;5087419;28;1937;-68
2022/07/12 06:15:11;;;;;;;;;;;;;;;;;;5088802;28;1638;-68
2022/07/12 06:17:36;;;;;;;;;;;;;;;;;;5093641;28;1345;-66
2022/07/12 06:20:01;;;;;;;;;;;;;;;;;;5092962;28;1366;-65
2022/07/12 06:22:27;;;;;;;;;;;;;;;;;;5087260;28;1325;-65
2022/07/12 06:24:52;;;;;;;;;;;;;;;;;;5082881;28;1566;-65
2022/07/12 06:27:17;;;;;;;;;;;;;;;;;;5081880;28;1758;-64
2022/07/12 06:29:47;;;;;;;;;;;;;;;;;;5090502;28;1469;-65
2022/07/12 06:32:13;;;;;;;;;;;;;;;;;;5078242;28;1326;-65
2022/07/12 06:34:38;;;;;;;;;;;;;;;;;;5090878;28;1951;-65
2022/07/12 06:37:03;;;;;;;;;;;;;;;;;;5091625;28;1314;-65
2022/07/12 06:39:28;;;;;;;;;;;;;;;;;;5090534;28;1312;-65
2022/07/12 06:41:54;;;;;;;;;;;;;;;;;;5080603;28;1444;-65
2022/07/12 06:44:19;;;;;;;;;;;;;;;;;;5094572;28;1309;-65
2022/07/12 06:46:45;;;;;;;;;;;;;;;;;;5079871;28;1318;-65
2022/07/12 06:49:13;;;;;;;;;;;;;;;;;;5090351;28;1208;-65
2022/07/12 06:51:39;;;;;;;;;;;;;;;;;;5089542;28;1186;-66
2022/07/12 06:54:04;;;;;;;;;;;;;;;;;;5089475;28;1960;-66
2022/07/12 06:56:29;;;;;;;;;;;;;;;;;;5084998;28;1318;-66
2022/07/12 06:58:54;;;;;;;;;;;;;;;;;;5090751;28;1324;-66
2022/07/12 07:01:20;;;;;;;;;;;;;;;;;;5089544;28;1349;-66
2022/07/12 07:03:45;;;;;;;;;;;;;;;;;;5083827;28;1391;-64
2022/07/12 07:06:11;;;;;;;;;;;;;;;;;;5085966;28;1267;-64
2022/07/12 07:08:36;;;;;;;;;;;;;;;;;;5086443;28;1489;-64
2022/07/12 07:11:01;;;;;;;;;;;;;;;;;;5079848;28;1497;-65
2022/07/12 07:13:26;;;;;;;;;;;;;;;;;;5073725;28;1957;-64
2022/07/12 07:15:52;;;;;;;;;;;;;;;;;;5082027;28;1293;-64
2022/07/12 07:18:17;;;;;;;;;;;;;;;;;;5085240;28;1304;-64
2022/07/12 07:20:42;;;;;;;;;;;;;;;;;;5087928;28;1314;-64
2022/07/12 07:23:09;;;;;;;;;;;;;;;;;;5083622;28;1174;-64
2022/07/12 07:25:34;;;;;;;;;;;;;;;;;;5074254;28;1481;-65
2022/07/12 07:27:59;;;;;;;;;;;;;;;;;;5074580;28;1618;-64
2022/07/12 07:33:08;;;;;;;;;;;;;;;;;;5081485;28;1978;-65
2022/07/12 07:35:33;;;;;;;;;;;;;;;;;;5080577;28;1545;-65
2022/07/12 07:37:58;;;;;;;;;;;;;;;;;;5089607;28;1297;-65
2022/07/12 07:40:24;;;;;;;;;;;;;;;;;;5093742;28;1281;-64
2022/07/12 07:42:49;;;;;;;;;;;;;;;;;;5085850;28;1322;-64
2022/07/12 07:45:14;;;;;;;;;;;;;;;;;;5087802;28;1356;-64
2022/07/12 07:47:46;;;;;;;;;;;;;;;;;;5090370;28;1303;-64
2022/07/12 07:50:12;;;;;;;;;;;;;;;;;;5084411;28;1238;-65
2022/07/12 07:52:37;;;;;;;;;;;;;;;;;;5092401;28;1906;-64
2022/07/12 07:55:02;;;;;;;;;;;;;;;;;;5092845;28;1510;-64
2022/07/12 07:57:28;;;;;;;;;;;;;;;;;;5083742;28;1369;-66
2022/07/12 07:59:54;;;;;;;;;;;;;;;;;;5089595;28;1320;-65
2022/07/12 08:02:19;;;;;;;;;;;;;;;;;;5080176;28;1467;-65
2022/07/12 08:04:44;;;;;;;;;;;;;;;;;;5089242;28;1370;-65
2022/07/12 08:07:09;;;;;;;;;;;;;;;;;;5087922;28;1270;-65
2022/07/12 08:09:34;;;;;;;;;;;;;;;;;;5089285;28;1249;-65
2022/07/12 08:12:00;;;;;;;;;;;;;;;;;;5082687;28;1448;-66
2022/07/12 08:14:25;;;;;;;;;;;;;;;;;;5088822;28;1890;-65
2022/07/12 08:16:50;;;;;;;;;;;;;;;;;;5084579;28;1413;-66
2022/07/12 08:19:15;;;;;;;;;;;;;;;;;;5091171;28;1361;-66
2022/07/12 08:21:41;;;;;;;;;;;;;;;;;;5081834;28;1730;-65
2022/07/12 08:24:06;;;;;;;;;;;;;;;;;;5085651;28;1261;-65
2022/07/12 08:26:31;;;;;;;;;;;;;;;;;;5086372;28;1439;-65
2022/07/12 08:28:56;;;;;;;;;;;;;;;;;;5086741;28;1348;-65
2022/07/12 08:31:21;;;;;;;;;;;;;;;;;;5079643;28;1349;-65
2022/07/12 08:33:47;;;;;;;;;;;;;;;;;;5086511;28;1953;-65
2022/07/12 08:36:12;;;;;;;;;;;;;;;;;;5096414;28;1346;-65
2022/07/12 08:38:38;;;;;;;;;;;;;;;;;;5090363;28;1399;-64
2022/07/12 08:41:04;;;;;;;;;;;;;;;;;;5089345;28;1285;-63
2022/07/12 08:43:29;;;;;;;;;;;;;;;;;;5089833;28;1264;-65
2022/07/12 08:45:54;;;;;;;;;;;;;;;;;;5090615;28;1340;-65
2022/07/12 08:48:20;;;;;;;;;;;;;;;;;;5085770;28;1391;-64
2022/07/12 08:50:59;;;;;;;;;;;;;;;;;;5089771;28;1307;-66
2022/07/12 08:53:24;;;;;;;;;;;;;;;;;;5092401;28;1902;-65
2022/07/12 08:55:50;;;;;;;;;;;;;;;;;;5086427;28;1296;-64
2022/07/12 08:58:16;;;;;;;;;;;;;;;;;;5088389;28;1456;-65
2022/07/12 09:00:41;;;;;;;;;;;;;;;;;;5086128;28;1292;-65
2022/07/12 09:03:07;;;;;;;;;;;;;;;;;;5088509;28;1306;-64
2022/07/12 09:05:33;;;;;;;;;;;;;;;;;;5088845;28;1321;-65
2022/07/12 09:08:05;;;;;;;;;;;;;;;;;;5089767;28;1435;-64
2022/07/12 09:10:31;;;;;;;;;;;;;;;;;;5083263;28;1277;-65
2022/07/12 09:12:57;;;;;;;;;;;;;;;;;;5085365;28;1905;-64
2022/07/12 09:15:23;;;;;;;;;;;;;;;;;;5084228;28;1306;-64
2022/07/12 09:17:58;;;;;;;;;;;;;;;;;;5086172;28;1350;-64
2022/07/12 09:20:31;;;;;;;;;;;;;;;;;;5078593;28;1345;-63
2022/07/12 09:22:57;;;;;;;;;;;;;;;;;;5086036;28;1261;-64
2022/07/12 09:25:23;;;;;;;;;;;;;;;;;;5083728;28;1310;-64
2022/07/12 09:27:53;;;;;;;;;;;;;;;;;;5089184;28;1374;-64
2022/07/12 09:30:19;;;;;;;;;;;;;;;;;;5085274;28;1265;-64
2022/07/12 09:38:19;;;;;;;;;;;;;;;;;;5088439;28;1377;-65
2022/07/12 09:40:44;;;;;;;;;;;;;;;;;;5088585;28;1337;-64
2022/07/12 09:43:10;;;;;;;;;;;;;;;;;;5083551;28;1296;-63
2022/07/12 09:45:36;;;;;;;;;;;;;;;;;;5079238;28;1305;-65
2022/07/12 09:48:02;;;;;;;;;;;;;;;;;;5090602;28;1281;-66
2022/07/12 09:50:29;;;;;;;;;;;;;;;;;;5093532;28;1576;-64
2022/07/12 09:52:57;;;;;;;;;;;;;;;;;;5092095;28;1918;-65
2022/07/12 09:55:24;;;;;;;;;;;;;;;;;;5084107;28;1425;-65
2022/07/12 09:57:52;;;;;;;;;;;;;;;;;;5083270;28;1274;-66
2022/07/12 10:00:17;;;;;;;;;;;;;;;;;;5082230;28;1204;-66
2022/07/12 10:02:42;;;;;;;;;;;;;;;;;;5090206;28;1425;-65
2022/07/12 10:05:07;;;;;;;;;;;;;;;;;;5086666;28;1295;-65
2022/07/12 10:07:33;;;;;;;;;;;;;;;;;;5083313;28;1305;-64
2022/07/12 10:09:58;;;;;;;;;;;;;;;;;;5078748;28;1427;-65
2022/07/12 10:12:24;;;;;;;;;;;;;;;;;;5089896;28;1347;-65
2022/07/12 10:14:53;;;;;;;;;;;;;;;;;;5090937;28;1889;-65
2022/07/12 10:17:22;;;;;;;;;;;;;;;;;;5080590;28;1426;-65
2022/07/12 10:19:47;;;;;;;;;;;;;;;;;;5078726;28;1156;-65
2022/07/12 10:22:23;;;;;;;;;;;;;;;;;;5092331;28;1297;-65
2022/07/12 10:24:51;;;;;;;;;;;;;;;;;;5084492;28;1252;-66
2022/07/12 10:27:17;;;;;;;;;;;;;;;;;;5088069;28;1419;-65
2022/07/12 10:29:46;;;;;;;;;;;;;;;;;;5079629;28;1369;-66
2022/07/12 10:32:32;;;;;;;;;;;;;;;;;;5084846;28;1235;-65
2022/07/12 10:34:58;;;;;;;;;;;;;;;;;;5078618;28;1885;-66
2022/07/12 10:37:23;;;;;;;;;;;;;;;;;;5086749;28;1318;-66
2022/07/12 10:40:07;;;;;;;;;;;;;;;;;;5086334;28;1477;-65
2022/07/12 10:42:33;;;;;;;;;;;;;;;;;;5083494;28;1487;-65
2022/07/12 10:45:11;;;;;;;;;;;;;;;;;;5084039;28;1503;-65
2022/07/12 10:47:55;;;;;;;;;;;;;;;;;;5079728;28;2086;-64
2022/07/12 10:50:57;;;;;;;;;;;;;;;;;;5091479;28;1545;-64
2022/07/12 10:53:27;;;;;;;;;;;;;;;;;;5042946;28;1890;-65
2022/07/12 10:56:04;;;;;;;;;;;;;;;;;;5078552;28;1241;-65
2022/07/12 10:58:49;;;;;;;;;;;;;;;;;;5081436;28;1312;-65
2022/07/12 11:01:16;;;;;;;;;;;;;;;;;;5088554;28;1568;-65
2022/07/12 11:03:43;;;;;;;;;;;;;;;;;;5086635;28;1242;-65
2022/07/12 11:06:09;;;;;;;;;;;;;;;;;;5084375;28;1468;-71
2022/07/12 11:08:47;;;;;;;;;;;;;;;;;;5076464;28;1491;-71
2022/07/12 11:11:15;;;;;;;;;;;;;;;;;;5079903;28;1487;-70
2022/07/12 11:13:41;;;;;;;;;;;;;;;;;;5081861;28;1962;-71
2022/07/12 11:16:06;;;;;;;;;;;;;;;;;;5083655;28;1295;-71
2022/07/12 11:18:32;;;;;;;;;;;;;;;;;;5078984;28;1509;-71
2022/07/12 11:20:58;;;;;;;;;;;;;;;;;;5085278;28;1475;-72
2022/07/12 11:23:27;;;;;;;;;;;;;;;;;;5080865;28;1504;-71
2022/07/12 11:25:54;;;;;;;;;;;;;;;;;;5081597;28;1750;-70
2022/07/12 11:28:19;;;;;;;;;;;;;;;;;;5085302;28;1389;-68
2022/07/12 11:30:49;;;;;;;;;;;;;;;;;;5085348;28;1325;-69
2022/07/12 11:33:14;;;;;;;;;;;;;;;;;;5093035;28;1889;-69
2022/07/12 11:35:43;;;;;;;;;;;;;;;;;;5085558;28;1344;-68
2022/07/12 11:38:08;;;;;;;;;;;;;;;;;;5091053;28;1263;-69
2022/07/12 11:40:33;;;;;;;;;;;;;;;;;;5078496;28;1281;-69
2022/07/12 11:42:59;;;;;;;;;;;;;;;;;;5083696;28;1227;-70
2022/07/12 11:45:29;;;;;;;;;;;;;;;;;;5086795;28;1342;-69
2022/07/12 11:47:56;;;;;;;;;;;;;;;;;;5079912;28;1331;-69
2022/07/12 11:50:21;;;;;;;;;;;;;;;;;;5084650;28;1227;-70
2022/07/12 11:52:46;;;;;;;;;;;;;;;;;;5088562;28;1906;-70
2022/07/12 11:55:12;;;;;;;;;;;;;;;;;;5076712;28;1576;-70
2022/07/12 11:57:37;;;;;;;;;;;;;;;;;;5080935;28;1267;-71
2022/07/12 12:00:22;;;;;;;;;;;;;;;;;;5084266;28;1337;-70
2022/07/12 12:02:51;;;;;;;;;;;;;;;;;;5084407;28;1445;-71
2022/07/12 12:05:16;;;;;;;;;;;;;;;;;;5091012;28;1440;-69
2022/07/12 12:07:42;;;;;;;;;;;;;;;;;;5088786;28;1495;-71
2022/07/12 12:10:14;;;;;;;;;;;;;;;;;;5086094;28;1334;-70
2022/07/12 12:12:45;;;;;;;;;;;;;;;;;;5089434;28;1127;-71
2022/07/12 12:15:12;;;;;;;;;;;;;;;;;;5086519;28;1438;-69
2022/07/12 12:17:42;;;;;;;;;;;;;;;;;;5078700;28;1382;-66
2022/07/12 12:20:11;;;;;;;;;;;;;;;;;;5087387;28;1402;-67
2022/07/12 12:22:37;;;;;;;;;;;;;;;;;;5085670;28;2015;-67
2022/07/12 12:25:04;;;;;;;;;;;;;;;;;;5081058;28;2324;-66
2022/07/12 12:27:30;;;;;;;;;;;;;;;;;;5092116;28;1207;-65
2022/07/12 12:30:04;;;;;;;;;;;;;;;;;;5091294;28;1877;-66
2022/07/12 12:32:29;;;;;;;;;;;;;;;;;;5081414;28;1798;-66
2022/07/12 12:35:10;;;;;;;;;;;;;;;;;;5085834;28;1947;-67
2022/07/12 12:37:36;;;;;;;;;;;;;;;;;;5095447;28;1275;-67
2022/07/12 12:40:02;;;;;;;;;;;;;;;;;;5091655;28;1403;-66
2022/07/12 12:42:27;;;;;;;;;;;;;;;;;;5082492;28;1714;-66
2022/07/12 12:44:53;;;;;;;;;;;;;;;;;;5089480;28;1333;-65
2022/07/12 12:47:36;;;;;;;;;;;;;;;;;;5083723;28;1385;-66
2022/07/12 12:50:02;;;;;;;;;;;;;;;;;;5080348;28;2125;-67
2022/07/12 12:52:28;;;;;;;;;;;;;;;;;;5087932;28;2152;-66
2022/07/12 12:54:54;;;;;;;;;;;;;;;;;;5086486;28;1963;-67
2022/07/12 12:57:19;;;;;;;;;;;;;;;;;;5084110;28;1862;-66
2022/07/12 12:59:45;;;;;;;;;;;;;;;;;;5087028;28;1215;-66
2022/07/12 13:02:10;;;;;;;;;;;;;;;;;;5085703;28;1208;-66
2022/07/12 13:04:36;;;;;;;;;;;;;;;;;;5093864;28;1242;-65
2022/07/12 13:07:02;;;;;;;;;;;;;;;;;;5086914;28;1342;-66
2022/07/12 13:09:28;;;;;;;;;;;;;;;;;;5084457;28;1445;-66
2022/07/12 13:11:54;;;;;;;;;;;;;;;;;;5083429;28;1221;-66
2022/07/12 13:14:19;;;;;;;;;;;;;;;;;;5083776;28;1886;-65
2022/07/12 13:16:44;;;;;;;;;;;;;;;;;;5089388;28;1365;-63
2022/07/12 13:19:09;;;;;;;;;;;;;;;;;;5087479;28;1218;-65
2022/07/12 13:21:35;;;;;;;;;;;;;;;;;;5093721;28;1256;-66
2022/07/12 13:24:00;;;;;;;;;;;;;;;;;;5088013;28;1262;-65
2022/07/12 13:26:26;;;;;;;;;;;;;;;;;;5079440;28;1313;-64
2022/07/12 13:28:52;;;;;;;;;;;;;;;;;;5088272;28;1218;-65
2022/07/12 13:31:17;;;;;;;;;;;;;;;;;;5081735;28;1316;-65
2022/07/12 13:33:43;;;;;;;;;;;;;;;;;;5079605;28;1889;-66
2022/07/12 13:36:08;;;;;;;;;;;;;;;;;;5078479;28;1405;-66
2022/07/12 13:38:33;;;;;;;;;;;;;;;;;;5088618;28;1312;-66
2022/07/12 13:40:58;;;;;;;;;;;;;;;;;;5090440;28;1249;-65
2022/07/12 13:43:23;;;;;;;;;;;;;;;;;;5091494;28;1205;-66
2022/07/12 13:45:49;;;;;;;;;;;;;;;;;;5090979;28;1434;-65
2022/07/12 13:48:15;;;;;;;;;;;;;;;;;;5086621;28;1309;-64
2022/07/12 13:50:40;;;;;;;;;;;;;;;;;;5090846;28;1147;-65
2022/07/12 13:53:07;;;;;;;;;;;;;;;;;;5084576;28;1905;-66
2022/07/12 13:55:32;;;;;;;;;;;;;;;;;;5090915;28;1229;-66
2022/07/12 13:57:57;;;;;;;;;;;;;;;;;;5089596;28;1307;-65
2022/07/12 14:00:23;;;;;;;;;;;;;;;;;;5073778;28;1515;-67
2022/07/12 14:02:48;;;;;;;;;;;;;;;;;;5084881;28;1362;-66
2022/07/12 14:05:15;;;;;;;;;;;;;;;;;;5079063;28;1289;-66
2022/07/12 14:07:40;;;;;;;;;;;;;;;;;;5079762;28;1298;-66
2022/07/12 14:10:06;;;;;;;;;;;;;;;;;;5076220;28;1238;-66
2022/07/12 14:12:32;;;;;;;;;;;;;;;;;;5074979;28;1234;-65
2022/07/12 14:17:44;;;;;;;;;;;;;;;;;;5082447;28;1457;-66
2022/07/12 14:20:13;;;;;;;;;;;;;;;;;;5084098;28;1076;-66
2022/07/12 14:22:39;;;;;;;;;;;;;;;;;;5080409;28;1312;-66
2022/07/12 14:25:05;;;;;;;;;;;;;;;;;;5079778;28;1464;-66
2022/07/12 14:27:30;;;;;;;;;;;;;;;;;;5083586;28;1238;-67
2022/07/12 14:29:56;;;;;;;;;;;;;;;;;;5088211;28;1334;-65
2022/07/12 14:32:21;;;;;;;;;;;;;;;;;;5085005;28;1579;-66
2022/07/12 14:34:46;;;;;;;;;;;;;;;;;;5088169;28;1902;-67
2022/07/12 14:37:11;;;;;;;;;;;;;;;;;;5090529;28;1376;-67
2022/07/12 14:39:38;;;;;;;;;;;;;;;;;;5082474;28;1403;-67
2022/07/12 14:42:03;;;;;;;;;;;;;;;;;;5085259;28;1313;-67
2022/07/12 14:44:29;;;;;;;;;;;;;;;;;;5085339;28;1317;-67
2022/07/12 14:46:54;;;;;;;;;;;;;;;;;;5084733;28;1255;-67
2022/07/12 14:49:20;;;;;;;;;;;;;;;;;;5083028;28;1377;-66
2022/07/12 14:51:45;;;;;;;;;;;;;;;;;;5080194;28;1169;-65
2022/07/12 14:54:11;;;;;;;;;;;;;;;;;;5076757;28;1926;-66
2022/07/12 14:56:36;;;;;;;;;;;;;;;;;;5077383;28;1326;-66
2022/07/12 14:59:01;;;;;;;;;;;;;;;;;;5071897;28;1528;-67
2022/07/12 15:01:27;;;;;;;;;;;;;;;;;;5074878;28;1259;-67
2022/07/12 15:03:52;;;;;;;;;;;;;;;;;;5076532;28;1212;-68
2022/07/12 15:06:17;;;;;;;;;;;;;;;;;;5081090;28;1219;-67
2022/07/12 15:08:42;;;;;;;;;;;;;;;;;;5078407;28;1627;-67
2022/07/12 15:11:08;;;;;;;;;;;;;;;;;;5079822;28;1214;-67
2022/07/12 15:13:33;;;;;;;;;;;;;;;;;;5080259;28;1947;-67
2022/07/12 15:15:58;;;;;;;;;;;;;;;;;;5075004;28;1560;-67
2022/07/12 15:18:26;;;;;;;;;;;;;;;;;;5079430;28;1328;-68
2022/07/12 15:20:51;;;;;;;;;;;;;;;;;;5067472;28;1891;-67
2022/07/12 15:23:17;;;;;;;;;;;;;;;;;;5086918;28;2031;-68
2022/07/12 15:25:42;;;;;;;;;;;;;;;;;;5076970;28;1152;-67
2022/07/12 15:28:07;;;;;;;;;;;;;;;;;;5077333;28;1395;-68
2022/07/12 15:30:32;;;;;;;;;;;;;;;;;;5065195;28;1592;-66
2022/07/12 15:32:58;;;;;;;;;;;;;;;;;;5078235;28;1889;-66
2022/07/12 15:35:24;;;;;;;;;;;;;;;;;;5069891;28;1485;-66
2022/07/12 15:37:49;;;;;;;;;;;;;;;;;;5073240;28;1302;-65
2022/07/12 15:40:14;;;;;;;;;;;;;;;;;;5068702;28;1584;-66
2022/07/12 15:42:40;;;;;;;;;;;;;;;;;;5067752;28;2170;-66
2022/07/12 15:45:06;;;;;;;;;;;;;;;;;;5080460;28;1205;-66
2022/07/12 15:47:31;;;;;;;;;;;;;;;;;;5077197;28;1599;-66
2022/07/12 15:49:56;;;;;;;;;;;;;;;;;;5080850;28;893;-65
2022/07/12 15:55:09;;;;;;;;;;;;;;;;;;5060745;28;1961;-65
2022/07/12 15:57:34;;;;;;;;;;;;;;;;;;5059431;28;1152;-66
2022/07/12 15:59:59;;;;;;;;;;;;;;;;;;5062831;28;1233;-66
2022/07/12 16:02:24;;;;;;;;;;;;;;;;;;5075805;28;1486;-65
2022/07/12 16:04:49;;;;;;;;;;;;;;;;;;5082355;28;1560;-65
2022/07/12 16:07:15;;;;;;;;;;;;;;;;;;5082144;28;1493;-65
2022/07/12 16:09:40;;;;;;;;;;;;;;;;;;5082197;28;1541;-65
2022/07/12 16:12:05;;;;;;;;;;;;;;;;;;5082073;28;1481;-66
2022/07/12 16:14:30;;;;;;;;;;;;;;;;;;5082193;28;1953;-66
2022/07/12 16:16:56;;;;;;;;;;;;;;;;;;5079633;28;1545;-66
2022/07/12 16:19:21;;;;;;;;;;;;;;;;;;5068245;28;1379;-65
2022/07/12 16:21:47;;;;;;;;;;;;;;;;;;5082323;28;1130;-65
2022/07/12 16:24:12;;;;;;;;;;;;;;;;;;5071997;28;1399;-67
2022/07/12 16:26:37;;;;;;;;;;;;;;;;;;5063168;28;1446;-67
2022/07/12 16:29:02;;;;;;;;;;;;;;;;;;5063684;28;1446;-66
2022/07/12 16:31:28;;;;;;;;;;;;;;;;;;5069476;28;1552;-64
2022/07/12 16:33:53;;;;;;;;;;;;;;;;;;5078355;28;1953;-66
2022/07/12 16:36:18;;;;;;;;;;;;;;;;;;5062962;28;1141;-65
2022/07/12 16:38:43;;;;;;;;;;;;;;;;;;5063709;28;1551;-66
2022/07/12 16:41:09;;;;;;;;;;;;;;;;;;5063424;28;1549;-66
2022/07/12 16:43:34;;;;;;;;;;;;;;;;;;5065588;28;1459;-66
2022/07/12 16:45:59;;;;;;;;;;;;;;;;;;5072859;28;1398;-66
2022/07/12 16:48:25;;;;;;;;;;;;;;;;;;5063062;28;1768;-66
2022/07/12 16:51:21;;;;;;;;;;;;;;;;;;5080112;28;1110;-65
2022/07/12 16:53:35;;;;;;;;;;;;;;;;;;5078887;28;1905;-65
2022/07/12 16:56:01;;;;;;;;;;;;;;;;;;5075632;28;1194;-66
2022/07/12 16:58:26;;;;;;;;;;;;;;;;;;5071318;28;1528;-66
2022/07/12 17:00:51;;;;;;;;;;;;;;;;;;5081156;28;1583;-66
2022/07/12 17:03:16;;;;;;;;;;;;;;;;;;5082860;28;1195;-66
2022/07/12 17:05:42;;;;;;;;;;;;;;;;;;5081222;28;1561;-67
2022/07/12 17:08:07;;;;;;;;;;;;;;;;;;5068671;28;1470;-66
2022/07/12 17:10:32;;;;;;;;;;;;;;;;;;5068111;28;1552;-66
2022/07/12 17:12:58;;;;;;;;;;;;;;;;;;5083527;28;1905;-66